createdAt,value
2018-09-18T00:02:30.236Z,2.80
2018-09-18T00:04:59.809Z,3.00
2018-09-18T00:07:32.920Z,2.77
2018-09-18T00:10:02.090Z,2.93
2018-09-18T00:12:34.645Z,3.10
2018-09-18T00:15:04.494Z,3.05
2018-09-18T00:17:38.268Z,3.22
2018-09-18T00:20:08.399Z,3.42
2018-09-18T00:22:40.969Z,3.25
2018-09-18T00:25:16.465Z,3.40
2018-09-18T00:27:49.169Z,3.30
2018-09-18T00:30:18.384Z,3.23
2018-09-18T00:32:50.969Z,3.00
2018-09-18T00:35:20.666Z,3.20
2018-09-18T00:37:54.531Z,3.17
2018-09-18T00:40:23.551Z,3.27
2018-09-18T00:42:57.246Z,3.33
2018-09-18T00:45:26.596Z,3.10
2018-09-18T00:47:59.825Z,3.20
2018-09-18T00:50:29.564Z,3.15
2018-09-18T00:53:03.595Z,3.53
2018-09-18T00:55:33.167Z,3.43
2018-09-18T00:58:09.903Z,3.37
2018-09-18T01:00:39.304Z,3.42
2018-09-18T01:03:12.516Z,3.10
2018-09-18T01:05:41.831Z,3.25
2018-09-18T01:08:14.274Z,3.20
2018-09-18T01:10:43.772Z,3.77
2018-09-18T01:13:16.386Z,3.55
2018-09-18T01:15:45.983Z,3.60
2018-09-18T01:18:18.728Z,4.00
2018-09-18T01:20:48.887Z,3.80
2018-09-18T01:23:22.380Z,3.75
2018-09-18T01:25:51.693Z,3.67
2018-09-18T01:28:24.236Z,3.60
2018-09-18T01:30:53.540Z,3.80
2018-09-18T01:33:25.856Z,3.98
2018-09-18T01:35:55.117Z,3.52
2018-09-18T01:38:28.171Z,3.90
2018-09-18T01:40:57.671Z,3.75
2018-09-18T01:43:30.463Z,3.95
2018-09-18T01:46:00.385Z,3.80
2018-09-18T01:48:33.081Z,3.80
2018-09-18T01:51:02.310Z,3.62
2018-09-18T01:53:34.885Z,4.08
2018-09-18T01:56:04.671Z,3.80
2018-09-18T01:58:41.235Z,3.90
2018-09-18T02:01:10.430Z,3.85
2018-09-18T02:03:43.027Z,4.05
2018-09-18T02:06:12.338Z,3.60
2018-09-18T02:08:44.680Z,3.95
2018-09-18T02:11:14.472Z,3.90
2018-09-18T02:13:48.440Z,3.83
2018-09-18T02:16:17.868Z,4.08
2018-09-18T02:18:51.084Z,3.87
2018-09-18T02:21:20.582Z,3.90
2018-09-18T02:23:53.799Z,3.92
2018-09-18T02:26:22.893Z,4.05
2018-09-18T02:28:56.429Z,4.35
2018-09-18T02:31:26.264Z,3.95
2018-09-18T02:33:59.171Z,4.10
2018-09-18T02:36:28.726Z,3.80
2018-09-18T02:39:02.674Z,3.95
2018-09-18T02:41:31.949Z,3.85
2018-09-18T02:44:05.478Z,4.00
2018-09-18T02:46:35.137Z,3.87
2018-09-18T02:49:08.219Z,4.15
2018-09-18T02:51:37.612Z,4.30
2018-09-18T02:54:10.333Z,4.12
2018-09-18T02:56:39.500Z,4.03
2018-09-18T02:59:27.097Z,3.77
2018-09-18T03:01:56.730Z,3.92
2018-09-18T03:04:28.752Z,4.35
2018-09-18T03:06:58.173Z,4.05
2018-09-18T03:09:32.377Z,4.10
2018-09-18T03:12:02.851Z,4.30
2018-09-18T03:14:35.179Z,3.98
2018-09-18T03:17:04.442Z,4.60
2018-09-18T03:19:37.250Z,4.67
2018-09-18T03:22:06.506Z,4.58
2018-09-18T03:24:39.709Z,4.40
2018-09-18T03:27:09.182Z,4.20
2018-09-18T03:29:42.192Z,4.50
2018-09-18T03:32:12.084Z,4.65
2018-09-18T03:34:45.114Z,4.30
2018-09-18T03:37:14.313Z,4.37
2018-09-18T03:39:46.886Z,4.37
2018-09-18T03:42:17.603Z,4.40
2018-09-18T03:44:50.506Z,4.75
2018-09-18T03:47:22.864Z,4.40
2018-09-18T03:49:57.700Z,4.60
2018-09-18T03:52:26.977Z,4.30
2018-09-18T03:55:03.045Z,4.42
2018-09-18T03:57:33.050Z,4.35
2018-09-18T04:00:09.460Z,4.85
2018-09-18T04:02:38.983Z,4.33
2018-09-18T04:05:12.180Z,4.83
2018-09-18T04:07:41.475Z,4.97
2018-09-18T04:10:13.851Z,4.67
2018-09-18T04:12:43.355Z,4.62
2018-09-18T04:15:16.439Z,5.07
2018-09-18T04:17:46.222Z,4.78
2018-09-18T04:20:18.400Z,4.92
2018-09-18T04:22:48.292Z,5.30
2018-09-18T04:25:20.918Z,5.20
2018-09-18T04:27:50.322Z,5.12
2018-09-18T04:30:23.617Z,5.15
2018-09-18T04:32:53.280Z,5.30
2018-09-18T04:35:26.339Z,5.42
2018-09-18T04:37:56.033Z,5.47
2018-09-18T04:40:30.124Z,5.30
2018-09-18T04:42:59.957Z,4.95
2018-09-18T04:45:33.419Z,5.00
2018-09-18T04:48:02.490Z,4.90
2018-09-18T04:50:35.203Z,4.77
2018-09-18T04:53:06.150Z,5.15
2018-09-18T04:55:37.855Z,4.72
2018-09-18T04:58:07.241Z,4.80
2018-09-18T05:00:44.504Z,4.85
2018-09-18T05:03:13.640Z,4.87
2018-09-18T05:05:46.161Z,5.33
2018-09-18T05:08:16.650Z,5.03
2018-09-18T05:10:51.634Z,5.20
2018-09-18T05:13:21.001Z,5.10
2018-09-18T05:15:53.419Z,4.90
2018-09-18T05:18:22.766Z,5.03
2018-09-18T05:20:54.946Z,5.13
2018-09-18T05:23:23.775Z,5.92
2018-09-18T05:25:55.804Z,5.30
2018-09-18T05:28:25.648Z,5.22
2018-09-18T05:30:58.576Z,5.90
2018-09-18T05:33:27.224Z,5.83
2018-09-18T05:36:00.278Z,5.55
2018-09-18T05:38:28.877Z,5.83
2018-09-18T05:40:57.452Z,6.10
2018-09-18T05:43:28.890Z,5.53
2018-09-18T05:45:57.797Z,5.47
2018-09-18T05:48:29.765Z,5.90
2018-09-18T05:50:58.596Z,5.80
2018-09-18T05:53:31.633Z,6.37
2018-09-18T05:56:00.459Z,5.85
2018-09-18T05:58:34.365Z,5.62
2018-09-18T06:01:06.613Z,5.95
2018-09-18T06:03:38.913Z,5.90
2018-09-18T06:06:08.088Z,5.97
2018-09-18T06:08:41.496Z,5.50
2018-09-18T06:11:10.118Z,5.75
2018-09-18T06:13:43.281Z,5.70
2018-09-18T06:16:11.811Z,5.62
2018-09-18T06:18:40.376Z,5.60
2018-09-18T06:21:12.481Z,5.22
2018-09-18T06:23:41.213Z,5.10
2018-09-18T06:26:14.542Z,5.17
2018-09-18T06:28:43.052Z,4.90
2018-09-18T06:31:15.331Z,4.80
2018-09-18T06:33:43.868Z,4.75
2018-09-18T06:36:16.210Z,4.60
2018-09-18T06:38:44.793Z,4.28
2018-09-18T06:41:13.380Z,4.00
2018-09-18T06:43:44.859Z,4.12
2018-09-18T06:46:13.461Z,4.00
2018-09-18T06:48:42.024Z,4.03
2018-09-18T06:51:14.375Z,4.10
2018-09-18T06:53:42.925Z,4.70
2018-09-18T06:56:15.189Z,4.30
2018-09-18T06:58:43.940Z,3.95
2018-09-18T07:01:19.693Z,4.25
2018-09-18T07:03:48.474Z,4.03
2018-09-18T07:06:21.483Z,3.90
2018-09-18T07:08:50.005Z,3.80
2018-09-18T07:11:26.028Z,3.85
2018-09-18T07:13:54.640Z,3.60
2018-09-18T07:16:26.070Z,3.70
2018-09-18T07:18:55.550Z,3.50
2018-09-18T07:21:26.896Z,3.30
2018-09-18T07:23:56.200Z,3.50
2018-09-18T07:26:27.772Z,3.37
2018-09-18T07:28:56.306Z,3.40
2018-09-18T07:31:24.846Z,3.33
2018-09-18T07:33:57.419Z,3.45
2018-09-18T07:36:25.937Z,3.33
2018-09-18T07:38:58.215Z,3.45
2018-09-18T07:41:27.010Z,3.30
2018-09-18T07:43:59.077Z,3.12
2018-09-18T07:46:27.658Z,2.98
2018-09-18T07:49:04.441Z,3.12
2018-09-18T07:51:33.816Z,2.92
2018-09-18T07:54:06.230Z,3.12
2018-09-18T07:56:34.807Z,3.10
2018-09-18T07:59:07.248Z,3.07
2018-09-18T08:01:43.939Z,3.35
2018-09-18T08:04:16.125Z,3.00
2018-09-18T08:06:44.805Z,3.05
2018-09-18T08:09:16.979Z,2.70
2018-09-18T08:11:45.562Z,2.80
2018-09-18T08:14:14.159Z,2.77
2018-09-18T08:16:46.517Z,2.65
2018-09-18T08:19:15.148Z,2.60
2018-09-18T08:21:48.304Z,2.50
2018-09-18T08:24:16.876Z,2.70
2018-09-18T08:26:49.152Z,2.60
2018-09-18T08:29:17.770Z,3.02
2018-09-18T08:31:50.099Z,2.35
2018-09-18T08:34:18.695Z,2.72
2018-09-18T08:36:51.029Z,2.30
2018-09-18T08:39:19.576Z,2.37
2018-09-18T08:41:52.081Z,2.50
2018-09-18T08:44:20.775Z,2.30
2018-09-18T08:46:54.576Z,2.45
2018-09-18T08:49:23.844Z,2.37
2018-09-18T08:51:56.469Z,2.43
2018-09-18T08:54:25.074Z,2.50
2018-09-18T08:56:57.284Z,2.37
2018-09-18T08:59:25.976Z,2.20
2018-09-18T09:02:00.920Z,2.35
2018-09-18T09:04:29.475Z,2.30
2018-09-18T09:07:02.661Z,2.40
2018-09-18T09:09:49.439Z,2.40
2018-09-18T09:12:18.028Z,2.22
2018-09-18T09:14:50.211Z,2.20
2018-09-18T09:17:18.886Z,2.20
2018-09-18T09:19:51.060Z,2.30
2018-09-18T09:22:20.073Z,2.10
2018-09-18T09:24:52.040Z,2.40
2018-09-18T09:27:20.641Z,2.25
2018-09-18T09:29:53.019Z,2.35
2018-09-18T09:32:21.823Z,2.35
2018-09-18T09:34:54.604Z,2.50
2018-09-18T09:37:23.264Z,2.30
2018-09-18T09:39:56.571Z,2.10
2018-09-18T09:42:25.290Z,2.40
2018-09-18T09:44:57.341Z,2.40
2018-09-18T09:47:25.995Z,2.50
2018-09-18T09:49:58.219Z,2.30
2018-09-18T09:52:26.876Z,2.30
2018-09-18T09:54:59.015Z,2.00
2018-09-18T09:57:28.355Z,2.10
2018-09-18T10:00:00.290Z,2.08
2018-09-18T10:02:30.235Z,1.90
2018-09-18T10:05:03.502Z,2.10
2018-09-18T10:07:32.102Z,2.10
2018-09-18T10:10:19.000Z,1.93
2018-09-18T10:12:47.662Z,1.80
2018-09-18T10:15:21.599Z,2.12
2018-09-18T10:17:50.274Z,1.90
2018-09-18T10:20:23.428Z,2.00
2018-09-18T10:22:52.049Z,2.23
2018-09-18T10:25:24.641Z,2.00
2018-09-18T10:27:53.272Z,2.00
2018-09-18T10:30:25.231Z,1.90
2018-09-18T10:32:54.215Z,2.00
2018-09-18T10:35:26.096Z,2.10
2018-09-18T10:37:54.736Z,1.90
2018-09-18T10:40:26.914Z,2.02
2018-09-18T10:42:55.732Z,2.00
2018-09-18T10:45:28.706Z,1.95
2018-09-18T10:47:57.340Z,1.80
2018-09-18T10:50:30.464Z,1.82
2018-09-18T10:52:59.046Z,1.90
2018-09-18T10:55:31.518Z,2.00
2018-09-18T10:58:00.077Z,2.00
2018-09-18T11:00:32.286Z,2.12
2018-09-18T11:03:00.896Z,1.90
2018-09-18T11:05:33.184Z,2.00
2018-09-18T11:08:01.785Z,2.00
2018-09-18T11:10:37.747Z,1.80
2018-09-18T11:13:06.412Z,1.90
2018-09-18T11:15:39.438Z,1.77
2018-09-18T11:18:08.083Z,1.92
2018-09-18T11:20:40.354Z,1.70
2018-09-18T11:23:08.939Z,2.00
2018-09-18T11:25:41.874Z,1.92
2018-09-18T11:28:10.461Z,2.10
2018-09-18T11:30:42.078Z,2.20
2018-09-18T11:33:10.718Z,1.87
2018-09-18T11:35:42.929Z,2.10
2018-09-18T11:38:11.509Z,1.87
2018-09-18T11:40:40.060Z,1.67
2018-09-18T11:43:12.407Z,1.70
2018-09-18T11:45:41.118Z,1.40
2018-09-18T11:48:13.285Z,1.60
2018-09-18T11:50:42.045Z,1.70
2018-09-18T11:53:14.203Z,1.50
2018-09-18T11:55:42.754Z,1.52
2018-09-18T11:58:15.076Z,1.50
2018-09-18T12:00:43.716Z,1.52
2018-09-18T12:03:16.130Z,1.45
2018-09-18T12:05:44.628Z,1.50
2018-09-18T12:08:17.740Z,1.15
2018-09-18T12:10:49.637Z,1.73
2018-09-18T12:13:21.479Z,1.50
2018-09-18T12:15:50.040Z,1.30
2018-09-18T12:18:22.203Z,1.45
2018-09-18T12:20:51.650Z,1.43
2018-09-18T12:23:23.065Z,1.50
2018-09-18T12:25:51.646Z,1.40
2018-09-18T12:28:20.246Z,1.30
2018-09-18T12:30:54.500Z,1.37
2018-09-18T12:33:23.075Z,1.30
2018-09-18T12:35:55.386Z,1.42
2018-09-18T12:38:24.922Z,1.47
2018-09-18T12:40:57.065Z,1.40
2018-09-18T12:43:25.731Z,1.33
2018-09-18T12:45:57.949Z,1.25
2018-09-18T12:48:26.571Z,1.40
2018-09-18T12:50:59.865Z,1.40
2018-09-18T12:53:28.363Z,1.27
2018-09-18T12:56:01.757Z,1.50
2018-09-18T12:58:30.428Z,1.40
2018-09-18T13:01:02.522Z,1.50
2018-09-18T13:03:31.193Z,1.30
2018-09-18T13:06:03.352Z,1.30
2018-09-18T13:08:32.524Z,1.50
2018-09-18T13:11:08.703Z,1.40
2018-09-18T13:13:38.067Z,1.37
2018-09-18T13:16:10.479Z,1.37
2018-09-18T13:18:39.229Z,1.30
2018-09-18T13:21:11.319Z,1.32
2018-09-18T13:23:39.975Z,1.30
2018-09-18T13:26:12.215Z,1.40
2018-09-18T13:28:40.905Z,1.30
2018-09-18T13:31:13.218Z,1.53
2018-09-18T13:33:41.833Z,1.60
2018-09-18T13:36:14.363Z,1.30
2018-09-18T13:38:43.040Z,1.40
2018-09-18T13:41:16.873Z,1.65
2018-09-18T13:43:45.586Z,1.40
2018-09-18T13:46:17.671Z,1.40
2018-09-18T13:48:46.394Z,1.65
2018-09-18T13:51:18.503Z,1.42
2018-09-18T13:53:47.216Z,1.57
2018-09-18T13:56:23.393Z,1.43
2018-09-18T13:58:59.882Z,1.35
2018-09-18T14:01:34.037Z,1.40
2018-09-18T14:04:02.536Z,1.40
2018-09-18T14:06:35.689Z,1.57
2018-09-18T14:09:06.011Z,1.60
2018-09-18T14:11:42.839Z,1.70
2018-09-18T14:14:11.583Z,1.62
2018-09-18T14:16:44.644Z,1.70
2018-09-18T14:19:13.310Z,1.52
2018-09-18T14:21:45.483Z,1.70
2018-09-18T14:24:14.245Z,1.57
2018-09-18T14:26:47.365Z,1.63
2018-09-18T14:29:15.968Z,1.70
2018-09-18T14:31:48.252Z,1.52
2018-09-18T14:34:16.923Z,1.52
2018-09-18T14:36:49.117Z,1.90
2018-09-18T14:39:17.716Z,1.50
2018-09-18T14:41:50.801Z,1.60
2018-09-18T14:44:19.440Z,1.47
2018-09-18T14:46:52.731Z,1.72
2018-09-18T14:49:21.481Z,1.65
2018-09-18T14:51:54.344Z,1.55
2018-09-18T14:54:22.960Z,1.70
2018-09-18T14:56:55.333Z,1.50
2018-09-18T14:59:24.007Z,1.60
2018-09-18T15:01:56.108Z,1.80
2018-09-18T15:04:24.837Z,1.70
2018-09-18T15:06:57.076Z,1.90
2018-09-18T15:09:25.651Z,1.90
2018-09-18T15:12:00.619Z,1.80
2018-09-18T15:14:29.409Z,1.92
2018-09-18T15:17:02.475Z,1.70
2018-09-18T15:19:31.171Z,1.80
2018-09-18T15:22:04.103Z,1.80
2018-09-18T15:24:32.633Z,1.80
2018-09-18T15:27:04.128Z,2.08
2018-09-18T15:29:33.487Z,1.80
2018-09-18T15:32:05.023Z,1.98
2018-09-18T15:34:33.720Z,1.72
2018-09-18T15:37:06.906Z,1.80
2018-09-18T15:39:35.661Z,1.67
2018-09-18T15:42:08.711Z,1.80
2018-09-18T15:44:37.333Z,1.98
2018-09-18T15:47:09.537Z,1.75
2018-09-18T15:49:38.093Z,1.85
2018-09-18T15:52:10.463Z,1.67
2018-09-18T15:54:39.721Z,1.52
2018-09-18T15:57:11.246Z,1.90
2018-09-18T15:59:39.953Z,1.47
2018-09-18T16:02:14.906Z,2.00
2018-09-18T16:04:43.649Z,1.77
2018-09-18T16:07:16.688Z,1.60
2018-09-18T16:09:45.579Z,1.52
2018-09-18T16:12:21.222Z,1.60
2018-09-18T16:14:50.162Z,1.60
2018-09-18T16:17:23.011Z,1.40
2018-09-18T16:19:51.667Z,1.50
2018-09-18T16:22:24.802Z,1.30
2018-09-18T16:24:53.482Z,1.42
2018-09-18T16:27:25.602Z,1.50
2018-09-18T16:29:54.603Z,1.50
2018-09-18T16:32:26.532Z,1.40
2018-09-18T16:34:55.350Z,1.40
2018-09-18T16:37:27.472Z,1.40
2018-09-18T16:39:56.185Z,1.40
2018-09-18T16:42:28.249Z,1.60
2018-09-18T16:44:58.160Z,1.85
2018-09-18T16:47:30.940Z,1.70
2018-09-18T16:49:59.748Z,1.75
2018-09-18T16:52:32.726Z,1.62
2018-09-18T16:55:01.599Z,1.52
2018-09-18T16:57:33.562Z,1.57
2018-09-18T17:00:02.288Z,1.75
2018-09-18T17:02:34.570Z,2.00
2018-09-18T17:05:03.197Z,1.92
2018-09-18T17:07:35.401Z,1.70
2018-09-18T17:10:05.189Z,1.92
2018-09-18T17:12:41.847Z,1.95
2018-09-18T17:15:10.457Z,1.83
2018-09-18T17:17:42.502Z,2.02
2018-09-18T17:20:11.733Z,1.95
2018-09-18T17:22:43.389Z,2.12
2018-09-18T17:25:12.207Z,2.20
2018-09-18T17:27:44.361Z,2.47
2018-09-18T17:30:13.355Z,2.30
2018-09-18T17:32:45.242Z,2.50
2018-09-18T17:36:40.660Z,2.47
2018-09-18T17:39:15.822Z,2.40
2018-09-18T17:41:45.112Z,2.40
2018-09-18T17:44:16.681Z,2.33
2018-09-18T17:46:45.379Z,2.40
2018-09-18T17:49:17.804Z,2.87
2018-09-18T17:51:49.855Z,2.93
2018-09-18T17:54:23.025Z,2.37
2018-09-18T17:56:52.067Z,2.37
2018-09-18T17:59:24.884Z,2.63
2018-09-18T18:01:53.457Z,2.70
2018-09-18T18:04:25.680Z,2.60
2018-09-18T18:06:54.630Z,2.50
2018-09-18T18:09:26.436Z,2.37
2018-09-18T18:11:55.378Z,2.70
2018-09-18T18:14:30.962Z,2.50
2018-09-18T18:16:59.757Z,2.77
2018-09-18T18:19:32.840Z,2.58
2018-09-18T18:22:01.519Z,2.80
2018-09-18T18:24:33.599Z,2.85
2018-09-18T18:27:02.274Z,2.90
2018-09-18T18:29:35.338Z,2.42
2018-09-18T18:32:04.928Z,2.80
2018-09-18T18:34:37.348Z,2.60
2018-09-18T18:37:07.054Z,2.65
2018-09-18T18:39:39.987Z,2.70
2018-09-18T18:42:08.943Z,2.50
2018-09-18T18:44:42.698Z,2.80
2018-09-18T18:47:11.293Z,2.60
2018-09-18T18:49:43.451Z,2.90
2018-09-18T18:52:12.720Z,2.60
2018-09-18T18:54:45.355Z,2.58
2018-09-18T18:57:14.098Z,2.60
2018-09-18T18:59:48.370Z,3.12
2018-09-18T19:02:17.107Z,2.37
2018-09-18T19:04:49.704Z,2.70
2018-09-18T19:07:18.309Z,2.70
2018-09-18T19:09:50.652Z,2.70
2018-09-18T19:12:19.327Z,2.90
2018-09-18T19:14:54.167Z,2.90
2018-09-18T19:17:23.177Z,2.83
2018-09-18T19:19:55.997Z,3.10
2018-09-18T19:22:26.740Z,3.17
2018-09-18T19:24:58.674Z,2.98
2018-09-18T19:27:27.572Z,2.80
2018-09-18T19:30:00.386Z,2.90
2018-09-18T19:32:29.018Z,3.17
2018-09-18T19:35:01.297Z,2.90
2018-09-18T19:37:31.622Z,3.27
2018-09-18T19:40:05.836Z,3.25
2018-09-18T19:42:35.219Z,3.30
2018-09-18T19:45:06.736Z,3.08
2018-09-18T19:47:35.622Z,3.10
2018-09-18T19:50:23.948Z,3.00
2018-09-18T19:52:52.709Z,3.12
2018-09-18T19:55:24.808Z,3.20
2018-09-18T19:57:53.813Z,3.40
2018-09-18T20:00:25.669Z,3.20
2018-09-18T20:02:54.540Z,3.00
2018-09-18T20:05:26.573Z,3.05
2018-09-18T20:07:55.216Z,2.92
2018-09-18T20:10:27.436Z,3.08
2018-09-18T20:12:56.119Z,3.17
2018-09-18T20:15:31.888Z,3.50
2018-09-18T20:18:00.782Z,3.20
2018-09-18T20:20:32.807Z,3.35
2018-09-18T20:23:01.439Z,3.07
2018-09-18T20:25:33.748Z,3.22
2018-09-18T20:28:02.382Z,3.17
2018-09-18T20:30:34.765Z,3.20
2018-09-18T20:33:03.386Z,2.92
2018-09-18T20:35:35.479Z,3.30
2018-09-18T20:38:04.006Z,3.07
2018-09-18T20:40:32.529Z,3.45
2018-09-18T20:43:04.953Z,3.40
2018-09-18T20:45:33.630Z,3.00
2018-09-18T20:48:05.914Z,3.10
2018-09-18T20:50:34.574Z,3.17
2018-09-18T20:53:06.675Z,3.27
2018-09-18T20:55:36.349Z,3.20
2018-09-18T20:58:08.467Z,3.37
2018-09-18T21:00:37.157Z,3.37
2018-09-18T21:03:09.396Z,3.00
2018-09-18T21:05:37.974Z,3.50
2018-09-18T21:08:14.091Z,3.08
2018-09-18T21:10:47.963Z,3.17
2018-09-18T21:13:16.623Z,3.10
2018-09-18T21:15:52.379Z,3.27
2018-09-18T21:18:21.095Z,3.40
2018-09-18T21:20:53.381Z,3.10
2018-09-18T21:23:21.980Z,3.05
2018-09-18T21:26:16.854Z,3.22
2018-09-18T21:28:45.761Z,3.08
2018-09-18T21:31:17.780Z,3.10
2018-09-18T21:33:46.423Z,3.40
2018-09-18T21:36:18.609Z,2.90
2018-09-18T21:38:47.554Z,3.30
2018-09-18T21:41:19.541Z,3.30
2018-09-18T21:43:48.176Z,3.25
2018-09-18T21:46:21.014Z,2.98
2018-09-18T21:48:49.620Z,3.30
2018-09-18T21:51:22.079Z,3.58
2018-09-18T21:53:50.627Z,3.60
2018-09-18T21:56:23.019Z,3.75
2018-09-18T21:58:51.580Z,3.35
2018-09-18T22:01:24.816Z,3.15
2018-09-18T22:03:53.418Z,3.30
2018-09-18T22:06:25.632Z,3.52
2018-09-18T22:08:54.230Z,3.40
2018-09-18T22:11:22.871Z,3.60
2018-09-18T22:13:56.137Z,3.40
2018-09-18T22:16:27.814Z,3.37
2018-09-18T22:18:59.793Z,3.40
2018-09-18T22:21:28.337Z,3.52
2018-09-18T22:24:00.625Z,3.50
2018-09-18T22:26:29.218Z,3.45
2018-09-18T22:29:01.488Z,3.60
2018-09-18T22:31:30.066Z,3.50
2018-09-18T22:34:06.293Z,3.67
2018-09-18T22:36:34.878Z,3.47
2018-09-18T22:39:08.591Z,3.52
2018-09-18T22:41:37.162Z,3.52
2018-09-18T22:44:09.507Z,3.33
2018-09-18T22:46:38.085Z,3.30
2018-09-18T22:49:10.454Z,3.67
2018-09-18T22:51:39.058Z,3.60
2018-09-18T22:54:11.316Z,3.40
2018-09-18T22:56:39.914Z,3.40
2018-09-18T22:59:13.126Z,3.67
2018-09-18T23:01:41.668Z,3.47
2018-09-18T23:04:14.832Z,3.67
2018-09-18T23:06:43.389Z,3.58
2018-09-18T23:09:16.269Z,3.75
2018-09-18T23:11:44.996Z,3.50
2018-09-18T23:14:17.491Z,3.90
2018-09-18T23:16:50.198Z,3.58
2018-09-18T23:19:22.873Z,3.20
2018-09-18T23:21:51.431Z,3.60
2018-09-18T23:24:19.980Z,3.72
2018-09-18T23:26:52.382Z,3.95
2018-09-18T23:29:20.997Z,3.75
2018-09-18T23:31:53.262Z,3.67
2018-09-18T23:34:22.111Z,3.67
2018-09-18T23:36:55.172Z,3.90
2018-09-18T23:39:23.725Z,4.05
2018-09-18T23:41:56.815Z,4.00
2018-09-18T23:44:25.371Z,3.87
2018-09-18T23:46:53.949Z,3.60
2018-09-18T23:49:25.455Z,3.60
2018-09-18T23:51:54.028Z,3.67
2018-09-18T23:54:26.313Z,3.90
2018-09-18T23:56:54.887Z,3.72
2018-09-18T23:59:23.454Z,4.00
